sensor_id;sensor_type;location;lat;lon;timestamp;temperature;humidity
76838;DHT22;65797;47.352;8.164;2023-06-26T00:02:21;19.30;99.90
76838;DHT22;65797;47.352;8.164;2023-06-26T00:04:47;19.30;99.90
76838;DHT22;65797;47.352;8.164;2023-06-26T00:07:13;19.30;99.90
76838;DHT22;65797;47.352;8.164;2023-06-26T00:09:38;19.30;99.90
76838;DHT22;65797;47.352;8.164;2023-06-26T00:12:04;19.30;99.90
76838;DHT22;65797;47.352;8.164;2023-06-26T00:14:30;19.20;99.90
76838;DHT22;65797;47.352;8.164;2023-06-26T00:16:56;19.10;99.90
76838;DHT22;65797;47.352;8.164;2023-06-26T00:19:22;19.10;99.90
76838;DHT22;65797;47.352;8.164;2023-06-26T00:21:47;19.10;99.90
76838;DHT22;65797;47.352;8.164;2023-06-26T00:24:17;19.00;99.90
76838;DHT22;65797;47.352;8.164;2023-06-26T00:26:46;18.90;99.90
76838;DHT22;65797;47.352;8.164;2023-06-26T00:29:12;18.90;99.90
76838;DHT22;65797;47.352;8.164;2023-06-26T00:31:37;18.90;99.90
76838;DHT22;65797;47.352;8.164;2023-06-26T00:34:05;18.90;99.90
76838;DHT22;65797;47.352;8.164;2023-06-26T00:36:31;18.90;99.90
76838;DHT22;65797;47.352;8.164;2023-06-26T00:38:58;18.80;99.90
76838;DHT22;65797;47.352;8.164;2023-06-26T00:41:24;18.90;99.90
76838;DHT22;65797;47.352;8.164;2023-06-26T00:43:50;18.80;99.90
76838;DHT22;65797;47.352;8.164;2023-06-26T00:46:16;18.70;99.90
76838;DHT22;65797;47.352;8.164;2023-06-26T00:48:43;18.70;99.90
76838;DHT22;65797;47.352;8.164;2023-06-26T00:51:10;18.60;99.90
76838;DHT22;65797;47.352;8.164;2023-06-26T00:53:35;18.60;99.90
76838;DHT22;65797;47.352;8.164;2023-06-26T00:56:05;18.50;99.90
76838;DHT22;65797;47.352;8.164;2023-06-26T00:58:31;18.40;1.00
76838;DHT22;65797;47.352;8.164;2023-06-26T01:00:57;18.40;1.00
76838;DHT22;65797;47.352;8.164;2023-06-26T01:03:24;18.30;1.00
76838;DHT22;65797;47.352;8.164;2023-06-26T01:05:52;18.10;1.00
76838;DHT22;65797;47.352;8.164;2023-06-26T01:08:18;17.90;1.00
76838;DHT22;65797;47.352;8.164;2023-06-26T01:10:45;18.00;1.00
76838;DHT22;65797;47.352;8.164;2023-06-26T01:13:12;18.10;1.00
76838;DHT22;65797;47.352;8.164;2023-06-26T01:15:40;18.10;1.00
76838;DHT22;65797;47.352;8.164;2023-06-26T01:18:06;18.10;99.90
76838;DHT22;65797;47.352;8.164;2023-06-26T01:20:36;18.10;99.90
76838;DHT22;65797;47.352;8.164;2023-06-26T01:23:07;18.10;99.90
76838;DHT22;65797;47.352;8.164;2023-06-26T01:26:17;18.10;99.90
76838;DHT22;65797;47.352;8.164;2023-06-26T01:28:42;18.10;99.90
76838;DHT22;65797;47.352;8.164;2023-06-26T01:31:10;18.00;1.00
76838;DHT22;65797;47.352;8.164;2023-06-26T01:33:36;17.90;1.00
76838;DHT22;65797;47.352;8.164;2023-06-26T01:36:03;17.80;1.00
76838;DHT22;65797;47.352;8.164;2023-06-26T01:38:28;17.80;1.00
76838;DHT22;65797;47.352;8.164;2023-06-26T01:40:54;17.80;1.00
76838;DHT22;65797;47.352;8.164;2023-06-26T01:46:35;17.70;1.00
76838;DHT22;65797;47.352;8.164;2023-06-26T01:49:08;17.60;1.00
76838;DHT22;65797;47.352;8.164;2023-06-26T01:51:38;17.60;1.00
76838;DHT22;65797;47.352;8.164;2023-06-26T01:54:08;17.60;1.00
76838;DHT22;65797;47.352;8.164;2023-06-26T01:56:37;17.60;1.00
76838;DHT22;65797;47.352;8.164;2023-06-26T01:59:04;17.60;1.00
76838;DHT22;65797;47.352;8.164;2023-06-26T02:01:31;17.50;1.00
76838;DHT22;65797;47.352;8.164;2023-06-26T02:03:59;17.60;1.00
76838;DHT22;65797;47.352;8.164;2023-06-26T02:06:25;17.60;1.00
76838;DHT22;65797;47.352;8.164;2023-06-26T02:08:50;17.50;1.00
76838;DHT22;65797;47.352;8.164;2023-06-26T02:11:16;17.50;1.00
76838;DHT22;65797;47.352;8.164;2023-06-26T02:13:42;17.50;1.00
76838;DHT22;65797;47.352;8.164;2023-06-26T02:16:07;17.50;1.00
76838;DHT22;65797;47.352;8.164;2023-06-26T02:18:33;17.40;1.00
76838;DHT22;65797;47.352;8.164;2023-06-26T02:20:59;17.40;1.00
76838;DHT22;65797;47.352;8.164;2023-06-26T02:23:25;17.40;1.00
76838;DHT22;65797;47.352;8.164;2023-06-26T02:25:51;17.30;1.00
76838;DHT22;65797;47.352;8.164;2023-06-26T02:28:16;17.30;1.00
76838;DHT22;65797;47.352;8.164;2023-06-26T02:30:42;17.30;1.00
76838;DHT22;65797;47.352;8.164;2023-06-26T02:33:08;17.30;1.00
76838;DHT22;65797;47.352;8.164;2023-06-26T02:35:33;17.30;1.00
76838;DHT22;65797;47.352;8.164;2023-06-26T02:37:59;17.20;1.00
76838;DHT22;65797;47.352;8.164;2023-06-26T02:40:25;17.20;1.00
76838;DHT22;65797;47.352;8.164;2023-06-26T02:42:50;17.10;1.00
76838;DHT22;65797;47.352;8.164;2023-06-26T02:45:16;17.00;1.00
76838;DHT22;65797;47.352;8.164;2023-06-26T02:47:42;17.10;1.00
76838;DHT22;65797;47.352;8.164;2023-06-26T02:50:08;17.10;1.00
76838;DHT22;65797;47.352;8.164;2023-06-26T02:52:34;17.10;1.00
76838;DHT22;65797;47.352;8.164;2023-06-26T02:54:59;17.10;1.00
76838;DHT22;65797;47.352;8.164;2023-06-26T02:57:25;17.00;1.00
76838;DHT22;65797;47.352;8.164;2023-06-26T02:59:51;17.00;1.00
76838;DHT22;65797;47.352;8.164;2023-06-26T03:02:16;16.90;1.00
76838;DHT22;65797;47.352;8.164;2023-06-26T03:04:42;16.90;1.00
76838;DHT22;65797;47.352;8.164;2023-06-26T03:07:08;16.90;1.00
76838;DHT22;65797;47.352;8.164;2023-06-26T03:09:34;16.90;1.00
76838;DHT22;65797;47.352;8.164;2023-06-26T03:12:00;16.90;1.00
76838;DHT22;65797;47.352;8.164;2023-06-26T03:14:26;16.90;1.00
76838;DHT22;65797;47.352;8.164;2023-06-26T03:16:52;16.80;1.00
76838;DHT22;65797;47.352;8.164;2023-06-26T03:19:18;16.80;1.00
76838;DHT22;65797;47.352;8.164;2023-06-26T03:21:44;16.80;1.00
76838;DHT22;65797;47.352;8.164;2023-06-26T03:24:10;16.80;1.00
76838;DHT22;65797;47.352;8.164;2023-06-26T03:26:35;16.80;1.00
76838;DHT22;65797;47.352;8.164;2023-06-26T03:29:01;16.70;1.00
76838;DHT22;65797;47.352;8.164;2023-06-26T03:31:27;16.80;1.00
76838;DHT22;65797;47.352;8.164;2023-06-26T03:33:52;16.70;1.00
76838;DHT22;65797;47.352;8.164;2023-06-26T03:36:18;16.70;1.00
76838;DHT22;65797;47.352;8.164;2023-06-26T03:38:44;16.60;1.00
76838;DHT22;65797;47.352;8.164;2023-06-26T03:41:12;16.60;1.00
76838;DHT22;65797;47.352;8.164;2023-06-26T03:43:38;16.60;1.00
76838;DHT22;65797;47.352;8.164;2023-06-26T03:46:04;16.60;1.00
76838;DHT22;65797;47.352;8.164;2023-06-26T03:48:30;16.60;1.00
76838;DHT22;65797;47.352;8.164;2023-06-26T03:50:55;16.50;70.40
76838;DHT22;65797;47.352;8.164;2023-06-26T03:53:21;16.40;99.90
76838;DHT22;65797;47.352;8.164;2023-06-26T03:55:47;16.50;99.90
76838;DHT22;65797;47.352;8.164;2023-06-26T03:58:12;16.50;99.90
76838;DHT22;65797;47.352;8.164;2023-06-26T04:00:38;16.50;99.90
76838;DHT22;65797;47.352;8.164;2023-06-26T04:03:04;16.50;99.90
76838;DHT22;65797;47.352;8.164;2023-06-26T04:05:29;16.60;99.90
76838;DHT22;65797;47.352;8.164;2023-06-26T04:07:55;16.60;15.50
76838;DHT22;65797;47.352;8.164;2023-06-26T04:10:21;16.70;46.40
76838;DHT22;65797;47.352;8.164;2023-06-26T04:12:47;16.70;90.50
76838;DHT22;65797;47.352;8.164;2023-06-26T04:15:13;16.70;99.90
76838;DHT22;65797;47.352;8.164;2023-06-26T04:17:39;16.80;99.90
76838;DHT22;65797;47.352;8.164;2023-06-26T04:20:05;16.90;99.90
76838;DHT22;65797;47.352;8.164;2023-06-26T04:22:34;16.90;99.90
76838;DHT22;65797;47.352;8.164;2023-06-26T04:25:03;17.00;1.00
76838;DHT22;65797;47.352;8.164;2023-06-26T04:27:29;16.90;18.70
76838;DHT22;65797;47.352;8.164;2023-06-26T04:29:55;17.10;52.70
76838;DHT22;65797;47.352;8.164;2023-06-26T04:32:21;17.20;1.00
76838;DHT22;65797;47.352;8.164;2023-06-26T04:34:47;17.40;1.00
76838;DHT22;65797;47.352;8.164;2023-06-26T04:37:13;17.50;1.00
76838;DHT22;65797;47.352;8.164;2023-06-26T04:39:42;17.50;1.00
76838;DHT22;65797;47.352;8.164;2023-06-26T04:42:08;17.60;1.00
76838;DHT22;65797;47.352;8.164;2023-06-26T04:44:34;17.80;1.00
76838;DHT22;65797;47.352;8.164;2023-06-26T04:47:00;17.90;1.00
76838;DHT22;65797;47.352;8.164;2023-06-26T04:49:26;18.10;1.00
76838;DHT22;65797;47.352;8.164;2023-06-26T04:51:54;18.20;1.00
76838;DHT22;65797;47.352;8.164;2023-06-26T04:54:19;18.40;1.00
76838;DHT22;65797;47.352;8.164;2023-06-26T04:56:45;18.50;1.00
76838;DHT22;65797;47.352;8.164;2023-06-26T04:59:12;18.70;1.00
76838;DHT22;65797;47.352;8.164;2023-06-26T05:01:39;18.80;1.00
76838;DHT22;65797;47.352;8.164;2023-06-26T05:04:05;18.90;1.00
76838;DHT22;65797;47.352;8.164;2023-06-26T05:06:31;19.10;99.90
76838;DHT22;65797;47.352;8.164;2023-06-26T05:08:57;19.10;99.90
76838;DHT22;65797;47.352;8.164;2023-06-26T05:11:24;19.30;99.90
76838;DHT22;65797;47.352;8.164;2023-06-26T05:13:50;19.40;1.00
76838;DHT22;65797;47.352;8.164;2023-06-26T05:16:16;19.50;99.90
76838;DHT22;65797;47.352;8.164;2023-06-26T05:18:41;19.60;99.90
76838;DHT22;65797;47.352;8.164;2023-06-26T05:21:07;19.80;99.90
76838;DHT22;65797;47.352;8.164;2023-06-26T05:23:34;20.00;99.90
76838;DHT22;65797;47.352;8.164;2023-06-26T05:26:01;20.20;99.90
76838;DHT22;65797;47.352;8.164;2023-06-26T05:28:27;20.40;99.90
76838;DHT22;65797;47.352;8.164;2023-06-26T05:30:54;20.60;99.90
76838;DHT22;65797;47.352;8.164;2023-06-26T05:33:25;20.80;99.90
76838;DHT22;65797;47.352;8.164;2023-06-26T05:35:54;21.00;99.90
76838;DHT22;65797;47.352;8.164;2023-06-26T05:38:21;21.20;99.90
76838;DHT22;65797;47.352;8.164;2023-06-26T05:40:47;21.30;99.90
76838;DHT22;65797;47.352;8.164;2023-06-26T05:43:13;21.50;99.90
76838;DHT22;65797;47.352;8.164;2023-06-26T05:45:40;21.60;99.90
76838;DHT22;65797;47.352;8.164;2023-06-26T05:48:06;21.80;99.90
76838;DHT22;65797;47.352;8.164;2023-06-26T05:50:32;22.00;99.90
76838;DHT22;65797;47.352;8.164;2023-06-26T05:52:58;22.20;99.90
76838;DHT22;65797;47.352;8.164;2023-06-26T05:55:24;22.30;99.90
76838;DHT22;65797;47.352;8.164;2023-06-26T05:57:51;22.50;99.90
76838;DHT22;65797;47.352;8.164;2023-06-26T06:00:17;22.60;99.90
76838;DHT22;65797;47.352;8.164;2023-06-26T06:02:43;22.80;99.90
76838;DHT22;65797;47.352;8.164;2023-06-26T06:05:09;23.00;99.90
76838;DHT22;65797;47.352;8.164;2023-06-26T06:07:35;23.10;99.90
76838;DHT22;65797;47.352;8.164;2023-06-26T06:10:02;23.30;99.90
76838;DHT22;65797;47.352;8.164;2023-06-26T06:12:28;23.60;99.90
76838;DHT22;65797;47.352;8.164;2023-06-26T06:14:55;23.80;94.10
76838;DHT22;65797;47.352;8.164;2023-06-26T06:17:22;24.10;98.90
76838;DHT22;65797;47.352;8.164;2023-06-26T06:19:48;24.20;98.10
76838;DHT22;65797;47.352;8.164;2023-06-26T06:22:14;24.20;95.90
76838;DHT22;65797;47.352;8.164;2023-06-26T06:24:39;24.30;94.70
76838;DHT22;65797;47.352;8.164;2023-06-26T06:27:05;24.50;92.90
76838;DHT22;65797;47.352;8.164;2023-06-26T06:29:31;24.60;95.70
76838;DHT22;65797;47.352;8.164;2023-06-26T06:31:57;24.70;91.70
76838;DHT22;65797;47.352;8.164;2023-06-26T06:34:22;24.90;89.50
76838;DHT22;65797;47.352;8.164;2023-06-26T06:36:49;25.00;74.30
76838;DHT22;65797;47.352;8.164;2023-06-26T06:39:17;24.80;83.00
76838;DHT22;65797;47.352;8.164;2023-06-26T06:41:43;24.90;84.40
76838;DHT22;65797;47.352;8.164;2023-06-26T06:44:09;25.10;71.80
76838;DHT22;65797;47.352;8.164;2023-06-26T06:46:34;25.20;74.80
76838;DHT22;65797;47.352;8.164;2023-06-26T06:49:00;25.30;67.10
76838;DHT22;65797;47.352;8.164;2023-06-26T06:51:27;25.50;53.50
76838;DHT22;65797;47.352;8.164;2023-06-26T06:53:52;25.50;49.40
76838;DHT22;65797;47.352;8.164;2023-06-26T06:56:18;25.60;42.60
76838;DHT22;65797;47.352;8.164;2023-06-26T06:58:44;25.70;38.80
76838;DHT22;65797;47.352;8.164;2023-06-26T07:01:12;25.90;39.30
76838;DHT22;65797;47.352;8.164;2023-06-26T07:03:37;26.10;39.00
76838;DHT22;65797;47.352;8.164;2023-06-26T07:06:03;26.30;36.30
76838;DHT22;65797;47.352;8.164;2023-06-26T07:08:29;26.40;36.80
76838;DHT22;65797;47.352;8.164;2023-06-26T07:10:56;26.70;34.80
76838;DHT22;65797;47.352;8.164;2023-06-26T07:13:24;27.00;37.50
76838;DHT22;65797;47.352;8.164;2023-06-26T07:15:50;27.00;35.40
76838;DHT22;65797;47.352;8.164;2023-06-26T07:18:16;26.90;36.30
76838;DHT22;65797;47.352;8.164;2023-06-26T07:20:42;27.20;36.00
76838;DHT22;65797;47.352;8.164;2023-06-26T07:23:08;27.50;37.00
76838;DHT22;65797;47.352;8.164;2023-06-26T07:25:34;27.40;36.20
76838;DHT22;65797;47.352;8.164;2023-06-26T07:28:00;27.60;36.30
76838;DHT22;65797;47.352;8.164;2023-06-26T07:30:26;27.60;34.70
76838;DHT22;65797;47.352;8.164;2023-06-26T07:32:52;27.60;31.50
76838;DHT22;65797;47.352;8.164;2023-06-26T07:35:18;27.40;30.50
76838;DHT22;65797;47.352;8.164;2023-06-26T07:37:43;27.20;28.50
76838;DHT22;65797;47.352;8.164;2023-06-26T07:40:10;27.40;29.30
76838;DHT22;65797;47.352;8.164;2023-06-26T07:42:35;27.90;30.80
76838;DHT22;65797;47.352;8.164;2023-06-26T07:45:01;27.80;28.20
76838;DHT22;65797;47.352;8.164;2023-06-26T07:47:27;27.80;30.00
76838;DHT22;65797;47.352;8.164;2023-06-26T07:49:53;27.90;29.00
76838;DHT22;65797;47.352;8.164;2023-06-26T07:52:19;28.10;29.60
76838;DHT22;65797;47.352;8.164;2023-06-26T07:54:45;28.10;29.60
76838;DHT22;65797;47.352;8.164;2023-06-26T07:57:11;28.10;27.50
76838;DHT22;65797;47.352;8.164;2023-06-26T07:59:38;28.10;27.50
76838;DHT22;65797;47.352;8.164;2023-06-26T08:02:04;28.10;27.40
76838;DHT22;65797;47.352;8.164;2023-06-26T08:04:30;28.20;27.90
76838;DHT22;65797;47.352;8.164;2023-06-26T08:06:59;28.20;27.10
76838;DHT22;65797;47.352;8.164;2023-06-26T08:09:27;28.20;27.80
76838;DHT22;65797;47.352;8.164;2023-06-26T08:11:53;28.20;27.40
76838;DHT22;65797;47.352;8.164;2023-06-26T08:14:19;28.40;26.50
76838;DHT22;65797;47.352;8.164;2023-06-26T08:16:45;28.40;27.50
76838;DHT22;65797;47.352;8.164;2023-06-26T08:19:12;28.80;29.70
76838;DHT22;65797;47.352;8.164;2023-06-26T08:21:38;28.90;29.00
76838;DHT22;65797;47.352;8.164;2023-06-26T08:24:03;29.00;29.80
76838;DHT22;65797;47.352;8.164;2023-06-26T08:26:29;28.80;28.80
76838;DHT22;65797;47.352;8.164;2023-06-26T08:28:55;28.90;28.60
76838;DHT22;65797;47.352;8.164;2023-06-26T08:31:21;29.30;31.50
76838;DHT22;65797;47.352;8.164;2023-06-26T08:33:47;29.30;31.20
76838;DHT22;65797;47.352;8.164;2023-06-26T08:36:13;29.20;31.20
76838;DHT22;65797;47.352;8.164;2023-06-26T08:38:39;29.30;29.10
76838;DHT22;65797;47.352;8.164;2023-06-26T08:41:08;29.60;30.80
76838;DHT22;65797;47.352;8.164;2023-06-26T08:43:35;29.90;33.60
76838;DHT22;65797;47.352;8.164;2023-06-26T08:46:02;29.80;32.00
76838;DHT22;65797;47.352;8.164;2023-06-26T08:48:31;29.80;31.90
76838;DHT22;65797;47.352;8.164;2023-06-26T08:51:01;29.70;30.30
76838;DHT22;65797;47.352;8.164;2023-06-26T08:53:48;29.70;41.60
76838;DHT22;65797;47.352;8.164;2023-06-26T08:56:17;29.90;30.50
76838;DHT22;65797;47.352;8.164;2023-06-26T08:58:44;30.50;33.10
76838;DHT22;65797;47.352;8.164;2023-06-26T09:01:09;30.00;29.60
76838;DHT22;65797;47.352;8.164;2023-06-26T09:03:36;30.00;30.00
76838;DHT22;65797;47.352;8.164;2023-06-26T09:06:02;30.00;29.80
76838;DHT22;65797;47.352;8.164;2023-06-26T09:08:28;30.00;28.00
76838;DHT22;65797;47.352;8.164;2023-06-26T09:10:54;30.10;28.70
76838;DHT22;65797;47.352;8.164;2023-06-26T09:13:19;30.30;28.70
76838;DHT22;65797;47.352;8.164;2023-06-26T09:15:46;30.20;27.00
76838;DHT22;65797;47.352;8.164;2023-06-26T09:18:13;30.60;29.00
76838;DHT22;65797;47.352;8.164;2023-06-26T09:20:45;30.50;26.50
76838;DHT22;65797;47.352;8.164;2023-06-26T09:23:11;30.50;27.20
76838;DHT22;65797;47.352;8.164;2023-06-26T09:25:41;30.50;25.80
76838;DHT22;65797;47.352;8.164;2023-06-26T09:28:08;30.90;28.60
76838;DHT22;65797;47.352;8.164;2023-06-26T09:30:35;30.90;29.40
76838;DHT22;65797;47.352;8.164;2023-06-26T09:33:20;31.10;29.10
76838;DHT22;65797;47.352;8.164;2023-06-26T09:35:47;31.10;30.50
76838;DHT22;65797;47.352;8.164;2023-06-26T09:38:14;31.00;28.50
76838;DHT22;65797;47.352;8.164;2023-06-26T09:40:43;31.40;30.70
76838;DHT22;65797;47.352;8.164;2023-06-26T09:43:13;31.70;32.20
76838;DHT22;65797;47.352;8.164;2023-06-26T09:45:40;32.00;33.00
76838;DHT22;65797;47.352;8.164;2023-06-26T09:48:06;32.00;33.80
76838;DHT22;65797;47.352;8.164;2023-06-26T09:50:37;32.10;33.80
76838;DHT22;65797;47.352;8.164;2023-06-26T09:53:10;31.90;31.80
76838;DHT22;65797;47.352;8.164;2023-06-26T09:55:37;32.20;33.40
76838;DHT22;65797;47.352;8.164;2023-06-26T09:58:03;32.50;35.90
76838;DHT22;65797;47.352;8.164;2023-06-26T10:00:32;32.70;37.80
76838;DHT22;65797;47.352;8.164;2023-06-26T10:02:59;32.30;33.70
76838;DHT22;65797;47.352;8.164;2023-06-26T10:05:25;31.90;29.40
76838;DHT22;65797;47.352;8.164;2023-06-26T10:07:53;32.00;28.80
76838;DHT22;65797;47.352;8.164;2023-06-26T10:10:19;32.20;29.40
76838;DHT22;65797;47.352;8.164;2023-06-26T10:12:48;32.80;34.60
76838;DHT22;65797;47.352;8.164;2023-06-26T10:15:15;32.40;30.80
76838;DHT22;65797;47.352;8.164;2023-06-26T10:17:43;32.60;31.50
76838;DHT22;65797;47.352;8.164;2023-06-26T10:20:10;32.60;33.70
76838;DHT22;65797;47.352;8.164;2023-06-26T10:22:44;33.10;36.80
76838;DHT22;65797;47.352;8.164;2023-06-26T10:25:10;33.20;35.60
76838;DHT22;65797;47.352;8.164;2023-06-26T10:27:42;33.10;36.50
76838;DHT22;65797;47.352;8.164;2023-06-26T10:30:16;33.30;38.40
76838;DHT22;65797;47.352;8.164;2023-06-26T10:32:43;32.60;32.60
76838;DHT22;65797;47.352;8.164;2023-06-26T10:35:11;33.30;38.60
76838;DHT22;65797;47.352;8.164;2023-06-26T10:37:41;33.90;40.90
76838;DHT22;65797;47.352;8.164;2023-06-26T10:40:12;33.60;41.10
76838;DHT22;65797;47.352;8.164;2023-06-26T10:42:40;33.90;41.30
76838;DHT22;65797;47.352;8.164;2023-06-26T10:45:17;34.10;41.30
76838;DHT22;65797;47.352;8.164;2023-06-26T10:47:47;34.10;38.10
76838;DHT22;65797;47.352;8.164;2023-06-26T10:50:21;34.10;41.80
76838;DHT22;65797;47.352;8.164;2023-06-26T10:53:10;34.40;41.50
76838;DHT22;65797;47.352;8.164;2023-06-26T10:55:37;34.50;45.70
76838;DHT22;65797;47.352;8.164;2023-06-26T10:58:47;34.40;42.20
76838;DHT22;65797;47.352;8.164;2023-06-26T11:01:21;33.90;37.80
76838;DHT22;65797;47.352;8.164;2023-06-26T11:06:19;33.50;32.10
76838;DHT22;65797;47.352;8.164;2023-06-26T11:08:46;32.90;28.80
76838;DHT22;65797;47.352;8.164;2023-06-26T11:11:13;32.40;26.90
76838;DHT22;65797;47.352;8.164;2023-06-26T11:13:40;32.00;23.70
76838;DHT22;65797;47.352;8.164;2023-06-26T11:16:06;31.60;21.10
76838;DHT22;65797;47.352;8.164;2023-06-26T11:18:32;31.80;22.50
76838;DHT22;65797;47.352;8.164;2023-06-26T11:21:24;31.90;23.20
76838;DHT22;65797;47.352;8.164;2023-06-26T11:23:51;31.60;21.00
76838;DHT22;65797;47.352;8.164;2023-06-26T11:26:20;31.40;20.30
76838;DHT22;65797;47.352;8.164;2023-06-26T11:28:54;31.40;21.60
76838;DHT22;65797;47.352;8.164;2023-06-26T11:33:50;31.20;19.70
76838;DHT22;65797;47.352;8.164;2023-06-26T11:36:15;31.30;20.70
76838;DHT22;65797;47.352;8.164;2023-06-26T11:38:41;31.30;20.30
76838;DHT22;65797;47.352;8.164;2023-06-26T11:41:07;31.50;21.20
76838;DHT22;65797;47.352;8.164;2023-06-26T11:48:44;30.60;24.60
76838;DHT22;65797;47.352;8.164;2023-06-26T11:51:13;30.90;16.80
76838;DHT22;65797;47.352;8.164;2023-06-26T11:53:43;30.80;25.10
76838;DHT22;65797;47.352;8.164;2023-06-26T11:56:16;31.10;17.50
76838;DHT22;65797;47.352;8.164;2023-06-26T11:59:06;31.90;23.80
76838;DHT22;65797;47.352;8.164;2023-06-26T12:01:38;32.60;27.70
76838;DHT22;65797;47.352;8.164;2023-06-26T12:04:06;32.30;26.40
76838;DHT22;65797;47.352;8.164;2023-06-26T12:06:38;32.00;24.10
76838;DHT22;65797;47.352;8.164;2023-06-26T12:09:07;31.40;22.20
76838;DHT22;65797;47.352;8.164;2023-06-26T12:11:35;31.00;18.50
76838;DHT22;65797;47.352;8.164;2023-06-26T12:14:02;30.70;16.00
76838;DHT22;65797;47.352;8.164;2023-06-26T12:19:06;30.20;12.20
76838;DHT22;65797;47.352;8.164;2023-06-26T12:24:04;30.00;10.60
76838;DHT22;65797;47.352;8.164;2023-06-26T12:29:07;29.60;7.60
76838;DHT22;65797;47.352;8.164;2023-06-26T12:31:33;29.60;6.70
76838;DHT22;65797;47.352;8.164;2023-06-26T14:52:45;32.10;17.90
76838;DHT22;65797;47.352;8.164;2023-06-26T15:59:51;30.00;1.00
76838;DHT22;65797;47.352;8.164;2023-06-26T16:02:17;30.10;1.00
76838;DHT22;65797;47.352;8.164;2023-06-26T16:04:43;29.90;1.00
76838;DHT22;65797;47.352;8.164;2023-06-26T16:14:54;29.90;1.00
76838;DHT22;65797;47.352;8.164;2023-06-26T16:17:20;29.70;1.00
76838;DHT22;65797;47.352;8.164;2023-06-26T16:19:46;29.90;1.00
76838;DHT22;65797;47.352;8.164;2023-06-26T16:22:12;29.70;1.00
76838;DHT22;65797;47.352;8.164;2023-06-26T16:32:30;29.50;1.00
76838;DHT22;65797;47.352;8.164;2023-06-26T16:34:55;29.40;1.00
76838;DHT22;65797;47.352;8.164;2023-06-26T16:37:21;29.40;1.00
76838;DHT22;65797;47.352;8.164;2023-06-26T16:39:47;29.30;1.00
76838;DHT22;65797;47.352;8.164;2023-06-26T16:42:13;29.10;1.00
76838;DHT22;65797;47.352;8.164;2023-06-26T16:44:38;29.10;1.00
76838;DHT22;65797;47.352;8.164;2023-06-26T16:47:04;29.30;1.00
76838;DHT22;65797;47.352;8.164;2023-06-26T16:49:30;29.10;1.00
76838;DHT22;65797;47.352;8.164;2023-06-26T16:51:56;29.20;1.00
76838;DHT22;65797;47.352;8.164;2023-06-26T16:54:25;29.10;1.00
76838;DHT22;65797;47.352;8.164;2023-06-26T16:56:52;28.90;1.00
76838;DHT22;65797;47.352;8.164;2023-06-26T16:59:18;28.90;1.00
76838;DHT22;65797;47.352;8.164;2023-06-26T17:01:45;28.90;1.00
76838;DHT22;65797;47.352;8.164;2023-06-26T17:04:11;28.80;1.00
76838;DHT22;65797;47.352;8.164;2023-06-26T17:06:37;28.60;1.00
76838;DHT22;65797;47.352;8.164;2023-06-26T17:09:03;28.50;1.00
76838;DHT22;65797;47.352;8.164;2023-06-26T17:11:29;28.40;1.00
76838;DHT22;65797;47.352;8.164;2023-06-26T17:13:54;28.30;1.00
76838;DHT22;65797;47.352;8.164;2023-06-26T17:16:20;28.30;1.00
76838;DHT22;65797;47.352;8.164;2023-06-26T17:18:46;28.00;1.00
76838;DHT22;65797;47.352;8.164;2023-06-26T17:21:11;28.00;1.00
76838;DHT22;65797;47.352;8.164;2023-06-26T17:23:39;27.90;1.00
76838;DHT22;65797;47.352;8.164;2023-06-26T17:26:05;27.70;1.00
76838;DHT22;65797;47.352;8.164;2023-06-26T17:28:31;27.70;1.00
76838;DHT22;65797;47.352;8.164;2023-06-26T17:30:57;27.70;1.00
76838;DHT22;65797;47.352;8.164;2023-06-26T17:33:22;27.60;1.00
76838;DHT22;65797;47.352;8.164;2023-06-26T17:35:48;27.60;1.00
76838;DHT22;65797;47.352;8.164;2023-06-26T17:38:14;27.50;1.00
76838;DHT22;65797;47.352;8.164;2023-06-26T17:40:40;27.30;1.00
76838;DHT22;65797;47.352;8.164;2023-06-26T17:43:06;27.30;1.00
76838;DHT22;65797;47.352;8.164;2023-06-26T17:45:32;27.20;1.00
76838;DHT22;65797;47.352;8.164;2023-06-26T17:47:59;27.20;1.00
76838;DHT22;65797;47.352;8.164;2023-06-26T17:50:26;27.20;1.00
76838;DHT22;65797;47.352;8.164;2023-06-26T17:52:52;27.10;1.00
76838;DHT22;65797;47.352;8.164;2023-06-26T17:55:17;26.80;1.00
76838;DHT22;65797;47.352;8.164;2023-06-26T17:57:43;26.70;1.00
76838;DHT22;65797;47.352;8.164;2023-06-26T18:00:12;26.70;1.00
76838;DHT22;65797;47.352;8.164;2023-06-26T18:02:38;26.70;1.00
76838;DHT22;65797;47.352;8.164;2023-06-26T18:05:05;26.50;1.00
76838;DHT22;65797;47.352;8.164;2023-06-26T18:07:31;26.30;1.00
76838;DHT22;65797;47.352;8.164;2023-06-26T18:09:57;26.10;1.00
76838;DHT22;65797;47.352;8.164;2023-06-26T18:12:23;26.20;1.00
76838;DHT22;65797;47.352;8.164;2023-06-26T18:14:49;26.30;1.00
76838;DHT22;65797;47.352;8.164;2023-06-26T18:17:15;26.10;1.00
76838;DHT22;65797;47.352;8.164;2023-06-26T18:19:41;26.20;1.00
76838;DHT22;65797;47.352;8.164;2023-06-26T18:22:07;25.90;1.00
76838;DHT22;65797;47.352;8.164;2023-06-26T18:24:32;26.00;1.00
76838;DHT22;65797;47.352;8.164;2023-06-26T18:27:01;25.90;1.00
76838;DHT22;65797;47.352;8.164;2023-06-26T18:29:27;25.80;1.00
76838;DHT22;65797;47.352;8.164;2023-06-26T18:31:53;25.70;1.00
76838;DHT22;65797;47.352;8.164;2023-06-26T18:34:19;25.70;1.00
76838;DHT22;65797;47.352;8.164;2023-06-26T18:36:45;25.60;1.00
76838;DHT22;65797;47.352;8.164;2023-06-26T18:39:12;25.70;1.00
76838;DHT22;65797;47.352;8.164;2023-06-26T18:41:38;25.50;1.00
76838;DHT22;65797;47.352;8.164;2023-06-26T18:44:04;25.40;1.00
76838;DHT22;65797;47.352;8.164;2023-06-26T18:46:32;25.50;1.00
76838;DHT22;65797;47.352;8.164;2023-06-26T18:49:04;25.40;1.00
76838;DHT22;65797;47.352;8.164;2023-06-26T18:51:31;25.30;1.00
76838;DHT22;65797;47.352;8.164;2023-06-26T18:53:57;25.30;1.00
76838;DHT22;65797;47.352;8.164;2023-06-26T18:56:27;25.20;1.00
76838;DHT22;65797;47.352;8.164;2023-06-26T18:58:53;25.30;1.00
76838;DHT22;65797;47.352;8.164;2023-06-26T19:01:19;25.30;1.00
76838;DHT22;65797;47.352;8.164;2023-06-26T19:03:44;25.10;1.00
76838;DHT22;65797;47.352;8.164;2023-06-26T19:06:10;25.20;1.00
76838;DHT22;65797;47.352;8.164;2023-06-26T19:08:36;25.10;1.00
76838;DHT22;65797;47.352;8.164;2023-06-26T19:11:03;25.10;1.00
76838;DHT22;65797;47.352;8.164;2023-06-26T19:13:28;25.10;1.00
76838;DHT22;65797;47.352;8.164;2023-06-26T19:15:56;25.00;1.00
76838;DHT22;65797;47.352;8.164;2023-06-26T19:18:21;24.80;1.00
76838;DHT22;65797;47.352;8.164;2023-06-26T19:20:47;24.90;1.00
76838;DHT22;65797;47.352;8.164;2023-06-26T19:23:13;24.80;1.00
76838;DHT22;65797;47.352;8.164;2023-06-26T19:25:38;24.90;1.00
76838;DHT22;65797;47.352;8.164;2023-06-26T19:28:04;24.90;1.00
76838;DHT22;65797;47.352;8.164;2023-06-26T19:30:30;24.90;1.00
76838;DHT22;65797;47.352;8.164;2023-06-26T19:33:00;24.80;1.00
76838;DHT22;65797;47.352;8.164;2023-06-26T19:35:26;24.80;1.00
76838;DHT22;65797;47.352;8.164;2023-06-26T19:37:51;24.80;1.00